Terminal Aerodrome Forecast
Issued by NWS

Home | Current Version | Previous Version | Text Only | Print | Product List | Glossary On
Versions: 1 2 3 4 5 6 7 8 9 10 11 12 13
183
FTUS45 KRIW 270541
TAFWRL
TAF
KWRL 270541Z 2706/2806 VRB05KT P6SM SCT070 BKN120 WS010/23025KT
     FM271200 VRB06KT P6SM BKN150
     FM272100 08007KT P6SM VCSH SCT030 BKN060
     FM280300 VRB06KT P6SM SCT060 BKN150=

USA.gov is the U.S. government's official web portal to all federal, state and local government web resources and services.